createdAt,value
2022-09-28T00:01:11.701Z,11.08
2022-09-28T00:03:39.060Z,11.05
2022-09-28T00:06:08.362Z,11.01
2022-09-28T00:08:36.231Z,10.97
2022-09-28T00:11:04.383Z,10.97
2022-09-28T00:13:33.071Z,10.96
2022-09-28T00:16:14.249Z,10.95
2022-09-28T00:18:42.047Z,10.98
2022-09-28T00:21:18.483Z,10.94
2022-09-28T00:24:04.626Z,10.93
2022-09-28T00:26:33.164Z,10.91
2022-09-28T00:29:02.204Z,10.85
2022-09-28T00:31:32.929Z,10.80
2022-09-28T00:34:02.982Z,10.76
2022-09-28T00:36:31.461Z,10.72
2022-09-28T00:38:59.422Z,10.69
2022-09-28T00:41:28.192Z,10.68
2022-09-28T00:44:27.250Z,10.68
2022-09-28T00:46:57.416Z,10.66
2022-09-28T00:49:52.794Z,10.61
2022-09-28T00:52:31.425Z,10.61
2022-09-28T00:55:01.409Z,10.62
2022-09-28T00:57:29.331Z,10.63
2022-09-28T00:59:57.214Z,10.61
2022-09-28T01:02:24.424Z,10.63
2022-09-28T01:04:52.450Z,10.62
2022-09-28T01:07:20.017Z,10.61
2022-09-28T01:09:47.556Z,10.58
2022-09-28T01:12:14.664Z,10.56
2022-09-28T01:14:41.902Z,10.54
2022-09-28T01:17:34.591Z,10.56
2022-09-28T01:20:28.441Z,10.53
2022-09-28T01:23:28.253Z,10.56
2022-09-28T01:26:32.901Z,10.58
2022-09-28T01:29:26.271Z,10.56
2022-09-28T01:32:11.767Z,10.52
2022-09-28T01:34:44.276Z,10.51
2022-09-28T01:37:15.061Z,10.54
2022-09-28T01:39:46.099Z,10.52
2022-09-28T01:42:21.658Z,10.53
2022-09-28T01:44:51.102Z,10.53
2022-09-28T01:47:21.091Z,10.54
2022-09-28T01:49:53.169Z,10.51
2022-09-28T01:52:34.175Z,10.52
2022-09-28T01:55:35.804Z,10.51
2022-09-28T01:58:19.288Z,10.53
2022-09-28T02:00:50.545Z,10.52
2022-09-28T02:03:22.389Z,10.58
2022-09-28T02:05:59.809Z,10.53
2022-09-28T02:08:35.684Z,10.53
2022-09-28T02:11:21.511Z,10.50
2022-09-28T02:14:03.436Z,10.48
2022-09-28T02:16:43.302Z,10.48
2022-09-28T02:19:19.048Z,10.47
2022-09-28T02:22:14.234Z,10.47
2022-09-28T02:24:56.824Z,10.48
2022-09-28T02:27:29.784Z,10.50
2022-09-28T02:29:57.095Z,10.46
2022-09-28T02:32:24.681Z,10.47
2022-09-28T02:34:52.139Z,10.51
2022-09-28T02:37:19.067Z,10.48
2022-09-28T02:39:46.322Z,10.49
2022-09-28T02:42:25.800Z,10.48
2022-09-28T02:45:14.313Z,10.53
2022-09-28T02:50:44.435Z,10.56
2022-09-28T02:53:14.459Z,10.54
2022-09-28T02:56:07.441Z,10.57
2022-09-28T02:58:50.899Z,10.58
2022-09-28T03:01:36.040Z,10.58
2022-09-28T03:04:06.231Z,10.59
2022-09-28T03:06:55.028Z,10.62
2022-09-28T03:09:43.261Z,10.65
2022-09-28T03:12:12.864Z,10.66
2022-09-28T03:14:40.395Z,10.63
2022-09-28T03:17:08.663Z,10.59
2022-09-28T03:19:36.873Z,10.59
2022-09-28T03:22:05.664Z,10.58
2022-09-28T03:24:32.715Z,10.55
2022-09-28T03:26:59.646Z,10.57
2022-09-28T03:29:26.804Z,10.56
2022-09-28T03:31:59.904Z,10.57
2022-09-28T03:34:27.132Z,10.54
2022-09-28T03:36:54.484Z,10.57
2022-09-28T03:39:21.513Z,10.59
2022-09-28T03:41:48.444Z,10.59
2022-09-28T03:44:17.184Z,10.58
2022-09-28T03:46:46.754Z,10.55
2022-09-28T03:49:13.876Z,10.55
2022-09-28T03:51:40.991Z,10.55
2022-09-28T03:54:08.883Z,10.54
2022-09-28T03:56:36.605Z,10.53
2022-09-28T03:59:04.685Z,10.49
2022-09-28T04:01:31.990Z,10.45
2022-09-28T04:03:59.281Z,10.41
2022-09-28T04:06:27.263Z,10.40
2022-09-28T04:08:54.301Z,10.40
2022-09-28T04:11:21.421Z,10.39
2022-09-28T04:13:52.462Z,10.39
2022-09-28T04:16:20.053Z,10.39
2022-09-28T04:18:57.813Z,10.37
2022-09-28T04:21:48.322Z,10.40
2022-09-28T04:24:15.600Z,10.41
2022-09-28T04:26:42.556Z,10.41
2022-09-28T04:29:17.946Z,10.41
2022-09-28T04:31:55.574Z,10.41
2022-09-28T04:34:34.523Z,10.42
2022-09-28T04:37:02.874Z,10.42
2022-09-28T04:39:30.121Z,10.42
2022-09-28T04:41:57.463Z,10.45
2022-09-28T04:44:24.458Z,10.45
2022-09-28T04:46:59.734Z,10.44
2022-09-28T04:49:30.023Z,10.45
2022-09-28T04:52:18.804Z,10.46
2022-09-28T04:54:48.906Z,10.43
2022-09-28T04:57:16.656Z,10.44
2022-09-28T04:59:43.637Z,10.41
2022-09-28T05:02:12.073Z,10.37
2022-09-28T05:05:02.029Z,10.36
2022-09-28T05:07:38.045Z,10.32
2022-09-28T05:10:07.194Z,10.32
2022-09-28T05:12:34.782Z,10.30
2022-09-28T05:15:01.748Z,10.32
2022-09-28T05:17:28.943Z,10.33
2022-09-28T05:20:19.058Z,10.35
2022-09-28T05:22:46.298Z,10.35
2022-09-28T05:25:15.354Z,10.37
2022-09-28T05:28:03.395Z,10.36
2022-09-28T05:30:48.941Z,10.37
2022-09-28T05:33:51.313Z,10.41
2022-09-28T05:36:18.411Z,10.41
2022-09-28T05:38:45.977Z,10.42
2022-09-28T05:41:13.945Z,10.42
2022-09-28T05:43:41.024Z,10.42
2022-09-28T05:46:08.403Z,10.42
2022-09-28T05:48:38.490Z,10.42
2022-09-28T05:51:05.593Z,10.41
2022-09-28T05:53:32.572Z,10.42
2022-09-28T05:56:00.031Z,10.41
2022-09-28T05:58:28.349Z,10.40
2022-09-28T06:00:58.316Z,10.41
2022-09-28T06:03:25.696Z,10.41
2022-09-28T06:05:54.487Z,10.44
2022-09-28T06:08:21.644Z,10.47
2022-09-28T06:11:01.086Z,10.51
2022-09-28T06:13:29.183Z,10.55
2022-09-28T06:15:56.348Z,10.55
2022-09-28T06:18:23.750Z,10.57
2022-09-28T06:21:10.981Z,10.58
2022-09-28T06:23:48.220Z,10.57
2022-09-28T06:26:17.222Z,10.56
2022-09-28T06:28:45.159Z,10.60
2022-09-28T06:31:12.511Z,10.60
2022-09-28T06:33:48.522Z,10.59
2022-09-28T06:36:15.902Z,10.62
2022-09-28T06:38:43.020Z,10.61
2022-09-28T06:41:11.791Z,10.62
2022-09-28T06:43:40.535Z,10.66
2022-09-28T06:46:14.370Z,10.67
2022-09-28T06:48:59.661Z,10.70
2022-09-28T06:51:46.852Z,10.74
2022-09-28T06:54:32.777Z,10.80
2022-09-28T06:57:02.703Z,10.83
2022-09-28T06:59:30.272Z,10.83
2022-09-28T07:01:59.904Z,10.83
2022-09-28T07:04:59.184Z,10.85
2022-09-28T07:07:44.891Z,10.85
2022-09-28T07:10:28.703Z,10.80
2022-09-28T07:13:22.103Z,10.84
2022-09-28T07:16:05.253Z,10.89
2022-09-28T07:18:32.283Z,10.92
2022-09-28T07:20:59.805Z,10.93
2022-09-28T07:23:29.678Z,10.91
2022-09-28T07:26:19.206Z,10.94
2022-09-28T07:29:13.227Z,10.99
2022-09-28T07:31:58.692Z,11.03
2022-09-28T07:34:58.753Z,11.09
2022-09-28T07:37:46.619Z,11.07
2022-09-28T07:40:32.191Z,11.05
2022-09-28T07:43:06.363Z,11.00
2022-09-28T07:45:36.845Z,10.96
2022-09-28T07:48:04.168Z,10.94
2022-09-28T07:50:56.767Z,10.95
2022-09-28T07:53:45.932Z,10.98
2022-09-28T07:56:31.132Z,10.94
2022-09-28T07:59:18.886Z,10.91
2022-09-28T08:02:04.381Z,10.91
2022-09-28T08:04:31.729Z,10.89
2022-09-28T08:06:59.812Z,10.90
2022-09-28T08:09:26.981Z,10.89
2022-09-28T08:12:19.787Z,10.89
2022-09-28T08:15:10.461Z,10.95
2022-09-28T08:17:51.743Z,10.99
2022-09-28T08:20:39.421Z,11.04
2022-09-28T08:23:11.707Z,11.07
2022-09-28T08:25:40.561Z,11.06
2022-09-28T08:28:07.609Z,11.02
2022-09-28T08:30:41.512Z,11.02
2022-09-28T08:33:27.902Z,11.08
2022-09-28T08:36:13.811Z,11.07
2022-09-28T08:38:59.021Z,11.04
2022-09-28T08:41:43.331Z,11.03
2022-09-28T08:44:24.571Z,11.01
2022-09-28T08:47:43.711Z,11.00
2022-09-28T08:50:32.553Z,11.01
2022-09-28T08:53:36.280Z,11.08
2022-09-28T08:56:17.372Z,11.19
2022-09-28T08:58:44.880Z,11.27
2022-09-28T09:01:16.675Z,11.27
2022-09-28T09:03:45.911Z,11.29
2022-09-28T09:06:36.571Z,11.33
2022-09-28T09:09:51.226Z,11.37
2022-09-28T09:12:41.179Z,11.29
2022-09-28T09:15:47.788Z,11.18
2022-09-28T09:18:37.304Z,11.13
2022-09-28T09:21:44.566Z,11.09
2022-09-28T09:24:48.967Z,11.04
2022-09-28T09:28:07.988Z,11.11
2022-09-28T09:31:09.332Z,11.12
2022-09-28T09:34:01.211Z,11.10
2022-09-28T09:37:17.222Z,11.15
2022-09-28T09:40:11.210Z,11.19
2022-09-28T09:43:27.934Z,11.22
2022-09-28T09:46:38.132Z,11.21
2022-09-28T09:49:24.995Z,11.28
2022-09-28T09:52:15.404Z,11.40
2022-09-28T09:54:57.804Z,11.48
2022-09-28T09:57:53.410Z,11.56
2022-09-28T10:00:46.070Z,11.60
2022-09-28T10:03:26.437Z,11.63
2022-09-28T10:06:07.267Z,11.65
2022-09-28T10:08:38.017Z,11.67
2022-09-28T10:11:38.759Z,11.70
2022-09-28T10:14:21.582Z,11.72
2022-09-28T10:16:57.357Z,11.74
2022-09-28T10:19:44.881Z,11.78
2022-09-28T10:22:31.712Z,11.79
2022-09-28T10:25:01.424Z,11.80
2022-09-28T10:27:32.063Z,11.79
2022-09-28T10:30:11.802Z,11.83
2022-09-28T10:32:41.795Z,11.85
2022-09-28T10:35:18.755Z,11.79
2022-09-28T10:38:00.251Z,11.76
2022-09-28T10:40:56.404Z,11.80
2022-09-28T10:44:08.819Z,11.84
2022-09-28T10:46:56.629Z,11.85
2022-09-28T10:49:24.491Z,11.80
2022-09-28T10:51:56.691Z,11.84
2022-09-28T10:54:29.665Z,11.81
2022-09-28T10:56:59.667Z,11.81
2022-09-28T10:59:41.136Z,11.89
2022-09-28T11:02:24.481Z,11.94
2022-09-28T11:05:00.341Z,11.95
2022-09-28T11:07:33.772Z,12.03
2022-09-28T11:10:01.786Z,12.08
2022-09-28T11:12:39.721Z,12.12
2022-09-28T11:15:08.019Z,12.17
2022-09-28T11:17:41.655Z,12.27
2022-09-28T11:20:33.111Z,12.28
2022-09-28T11:23:08.322Z,12.29
2022-09-28T11:25:39.701Z,12.40
2022-09-28T11:28:06.943Z,12.43
2022-09-28T11:30:40.725Z,12.48
2022-09-28T11:33:33.601Z,12.57
2022-09-28T11:36:47.131Z,12.62
2022-09-28T11:39:38.795Z,12.64
2022-09-28T11:42:35.054Z,12.59
2022-09-28T11:45:37.138Z,12.65
2022-09-28T11:48:07.531Z,12.81
2022-09-28T11:50:55.953Z,13.01
2022-09-28T11:53:48.934Z,13.23
2022-09-28T11:56:34.912Z,13.46
2022-09-28T11:59:14.952Z,13.49
2022-09-28T12:01:57.398Z,13.49
2022-09-28T12:04:48.972Z,13.44
2022-09-28T12:07:23.367Z,13.45
2022-09-28T12:09:55.643Z,13.35
2022-09-28T12:12:25.041Z,13.39
2022-09-28T12:14:57.598Z,13.35
2022-09-28T12:17:42.866Z,13.25
2022-09-28T12:20:54.881Z,13.22
2022-09-28T12:23:31.552Z,13.28
2022-09-28T12:26:03.824Z,13.27
2022-09-28T12:28:35.423Z,13.24
2022-09-28T12:31:12.884Z,13.28
2022-09-28T12:33:42.113Z,13.29
2022-09-28T12:36:30.590Z,13.23
2022-09-28T12:39:30.702Z,13.26
2022-09-28T12:42:32.101Z,13.30
2022-09-28T12:45:02.409Z,13.34
2022-09-28T12:47:46.131Z,13.30
2022-09-28T12:50:38.145Z,13.23
2022-09-28T12:53:08.172Z,13.22
2022-09-28T12:55:51.212Z,13.30
2022-09-28T12:59:00.129Z,13.36
2022-09-28T13:01:40.127Z,13.46
2022-09-28T13:04:44.780Z,13.60
2022-09-28T13:07:23.459Z,13.59
2022-09-28T13:09:55.787Z,13.57
2022-09-28T13:12:25.911Z,13.50
2022-09-28T13:14:58.632Z,13.48
2022-09-28T13:17:50.614Z,13.49
2022-09-28T13:20:35.889Z,13.57
2022-09-28T13:23:08.858Z,13.57
2022-09-28T13:25:37.435Z,13.54
2022-09-28T13:28:05.890Z,13.43
2022-09-28T13:30:35.804Z,13.41
2022-09-28T13:33:04.501Z,13.40
2022-09-28T13:35:33.425Z,13.40
2022-09-28T13:38:18.750Z,13.46
2022-09-28T13:41:09.984Z,13.47
2022-09-28T13:43:57.932Z,13.49
2022-09-28T13:46:43.371Z,13.44
2022-09-28T13:49:17.285Z,13.49
2022-09-28T13:52:02.974Z,13.55
2022-09-28T13:55:06.675Z,13.58
2022-09-28T13:57:51.559Z,13.58
2022-09-28T14:00:37.322Z,13.58
2022-09-28T14:03:19.717Z,13.51
2022-09-28T14:05:49.641Z,13.43
2022-09-28T14:08:38.508Z,13.43
2022-09-28T14:11:27.101Z,13.34
2022-09-28T14:14:16.225Z,13.23
2022-09-28T14:16:43.957Z,13.15
2022-09-28T14:19:26.706Z,13.12
2022-09-28T14:22:00.627Z,13.09
2022-09-28T14:25:05.152Z,12.98
2022-09-28T14:27:37.979Z,12.93
2022-09-28T14:30:19.692Z,12.87
2022-09-28T14:32:54.896Z,12.81
2022-09-28T14:35:40.842Z,12.84
2022-09-28T14:38:36.499Z,12.86
2022-09-28T14:41:13.785Z,12.85
2022-09-28T14:43:46.751Z,12.81
2022-09-28T14:46:26.161Z,12.75
2022-09-28T14:48:55.176Z,12.72
2022-09-28T14:51:25.574Z,12.70
2022-09-28T14:54:12.965Z,12.70
2022-09-28T14:56:47.748Z,12.71
2022-09-28T14:59:18.326Z,12.62
2022-09-28T15:02:02.693Z,12.56
2022-09-28T15:04:31.249Z,12.55
2022-09-28T15:06:58.284Z,12.55
2022-09-28T15:09:43.790Z,12.50
2022-09-28T15:12:12.261Z,12.46
2022-09-28T15:14:54.097Z,12.39
2022-09-28T15:17:27.565Z,12.33
2022-09-28T15:20:01.543Z,12.21
2022-09-28T15:22:30.483Z,12.12
2022-09-28T15:25:02.362Z,12.05
2022-09-28T15:27:37.789Z,12.01
2022-09-28T15:30:28.819Z,11.95
2022-09-28T15:33:17.200Z,11.93
2022-09-28T15:36:07.932Z,11.90
2022-09-28T15:38:35.231Z,11.89
2022-09-28T15:41:06.718Z,11.86
2022-09-28T15:43:36.851Z,11.80
2022-09-28T15:46:21.280Z,11.75
2022-09-28T15:48:56.589Z,11.75
2022-09-28T15:51:24.841Z,11.72
2022-09-28T15:53:58.250Z,11.67
2022-09-28T15:56:26.393Z,11.68
2022-09-28T15:59:15.182Z,11.65
2022-09-28T16:01:45.945Z,11.65
2022-09-28T16:04:39.561Z,11.65
2022-09-28T16:07:29.341Z,11.61
2022-09-28T16:10:02.431Z,11.56
2022-09-28T16:13:06.396Z,11.45
2022-09-28T16:15:35.555Z,11.33
2022-09-28T16:18:20.902Z,11.16
2022-09-28T16:20:56.306Z,11.00
2022-09-28T16:23:31.345Z,10.84
2022-09-28T16:26:37.526Z,10.68
2022-09-28T16:29:40.309Z,10.56
2022-09-28T16:32:26.029Z,10.46
2022-09-28T16:35:17.515Z,10.36
2022-09-28T16:37:48.782Z,10.30
2022-09-28T16:40:15.871Z,10.21
2022-09-28T16:42:48.921Z,10.12
2022-09-28T16:45:23.914Z,10.04
2022-09-28T16:47:53.145Z,9.97
2022-09-28T16:50:21.802Z,9.93
2022-09-28T16:53:31.486Z,9.85
2022-09-28T16:55:59.156Z,9.83
2022-09-28T16:58:27.451Z,9.78
2022-09-28T17:00:55.150Z,9.72
2022-09-28T17:03:23.801Z,9.68
2022-09-28T17:05:51.821Z,9.62
2022-09-28T17:08:20.514Z,9.54
2022-09-28T17:13:39.942Z,9.37
2022-09-28T17:16:11.744Z,9.22
2022-09-28T17:18:39.907Z,9.14
2022-09-28T17:21:11.848Z,9.05
2022-09-28T17:23:38.956Z,8.99
2022-09-28T17:26:06.082Z,8.91
2022-09-28T17:28:37.049Z,8.84
2022-09-28T17:31:04.956Z,8.78
2022-09-28T17:33:32.103Z,8.73
2022-09-28T17:36:04.886Z,8.68
2022-09-28T17:38:32.601Z,8.67
2022-09-28T17:40:59.734Z,8.62
2022-09-28T17:43:26.782Z,8.56
2022-09-28T17:45:53.726Z,8.49
2022-09-28T17:48:24.429Z,8.42
2022-09-28T17:50:51.591Z,8.37
2022-09-28T17:53:18.488Z,8.33
2022-09-28T17:55:45.574Z,8.28
2022-09-28T17:58:18.507Z,8.21
2022-09-28T18:00:50.745Z,8.16
2022-09-28T18:03:20.197Z,8.11
2022-09-28T18:05:49.849Z,8.04
2022-09-28T18:08:21.447Z,7.98
2022-09-28T18:10:49.972Z,7.96
2022-09-28T18:13:16.920Z,7.87
2022-09-28T18:15:43.883Z,7.80
2022-09-28T18:18:13.345Z,7.74
2022-09-28T18:20:41.671Z,7.67
2022-09-28T18:23:08.855Z,7.62
2022-09-28T18:25:44.561Z,7.57
2022-09-28T18:28:12.893Z,7.51
2022-09-28T18:30:41.779Z,7.48
2022-09-28T18:33:09.162Z,7.43
2022-09-28T18:35:36.637Z,7.36
2022-09-28T18:38:05.520Z,7.31
2022-09-28T18:40:36.023Z,7.27
2022-09-28T18:43:03.901Z,7.23
2022-09-28T18:45:31.224Z,7.19
2022-09-28T18:47:59.962Z,7.18
2022-09-28T18:50:27.032Z,7.15
2022-09-28T18:52:54.093Z,7.12
2022-09-28T18:55:21.251Z,7.10
2022-09-28T18:57:48.224Z,7.05
2022-09-28T19:00:15.487Z,7.02
2022-09-28T19:02:43.247Z,7.01
2022-09-28T19:05:10.321Z,7.00
2022-09-28T19:07:37.577Z,6.97
2022-09-28T19:10:05.231Z,6.92
2022-09-28T19:12:33.009Z,6.88
2022-09-28T19:15:00.026Z,6.85
2022-09-28T19:17:36.953Z,6.87
2022-09-28T19:20:04.666Z,6.88
2022-09-28T19:22:31.944Z,6.91
2022-09-28T19:24:59.132Z,6.92
2022-09-28T19:27:26.362Z,6.91
2022-09-28T19:29:53.761Z,6.93
2022-09-28T19:32:21.097Z,6.94
2022-09-28T19:34:48.635Z,6.94
2022-09-28T19:37:16.144Z,6.93
2022-09-28T19:39:43.511Z,6.92
2022-09-28T19:42:10.751Z,6.89
2022-09-28T19:44:39.587Z,6.85
2022-09-28T19:47:09.029Z,6.82
2022-09-28T19:49:38.762Z,6.81
2022-09-28T19:52:17.285Z,6.85
2022-09-28T19:54:57.045Z,6.89
2022-09-28T19:57:27.977Z,6.90
2022-09-28T20:00:01.669Z,6.92
2022-09-28T20:02:33.818Z,6.92
2022-09-28T20:05:01.013Z,6.87
2022-09-28T20:07:28.382Z,6.84
2022-09-28T20:09:55.385Z,6.78
2022-09-28T20:12:22.550Z,6.73
2022-09-28T20:14:49.614Z,6.68
2022-09-28T20:17:16.610Z,6.63
2022-09-28T20:19:43.745Z,6.61
2022-09-28T20:22:12.234Z,6.59
2022-09-28T20:24:39.307Z,6.58
2022-09-28T20:27:06.802Z,6.57
2022-09-28T20:29:34.796Z,6.53
2022-09-28T20:32:04.174Z,6.51
2022-09-28T20:34:31.761Z,6.52
2022-09-28T20:36:58.738Z,6.52
2022-09-28T20:39:26.151Z,6.53
2022-09-28T20:41:53.781Z,6.54
2022-09-28T20:44:21.239Z,6.53
2022-09-28T20:46:51.427Z,6.53
2022-09-28T20:49:18.603Z,6.56
2022-09-28T20:51:45.793Z,6.62
2022-09-28T20:54:12.929Z,6.69
2022-09-28T20:56:39.915Z,6.71
2022-09-28T20:59:11.902Z,6.67
2022-09-28T21:01:39.209Z,6.69
2022-09-28T21:04:07.415Z,6.73
2022-09-28T21:06:39.352Z,6.71
2022-09-28T21:09:07.004Z,6.75
2022-09-28T21:11:35.826Z,6.75
2022-09-28T21:14:05.261Z,6.73
2022-09-28T21:16:34.261Z,6.71
2022-09-28T21:19:01.495Z,6.71
2022-09-28T21:21:28.608Z,6.72
2022-09-28T21:23:56.813Z,6.70
2022-09-28T21:26:26.055Z,6.67
2022-09-28T21:28:58.239Z,6.67
2022-09-28T21:31:29.412Z,6.66
2022-09-28T21:33:57.816Z,6.67
2022-09-28T21:36:25.685Z,6.67
2022-09-28T21:38:54.314Z,6.69
2022-09-28T21:41:21.453Z,6.67
2022-09-28T21:43:48.365Z,6.67
2022-09-28T21:46:15.454Z,6.69
2022-09-28T21:48:42.430Z,6.67
2022-09-28T21:51:12.882Z,6.66
2022-09-28T21:53:39.857Z,6.70
2022-09-28T21:56:09.939Z,6.78
2022-09-28T21:58:37.176Z,6.83
2022-09-28T22:01:11.083Z,6.79
2022-09-28T22:03:38.184Z,6.73
2022-09-28T22:06:06.024Z,6.65
2022-09-28T22:08:34.021Z,6.57
2022-09-28T22:11:02.778Z,6.49
2022-09-28T22:13:31.381Z,6.45
2022-09-28T22:15:58.999Z,6.41
2022-09-28T22:18:27.783Z,6.35
2022-09-28T22:21:09.876Z,6.29
2022-09-28T22:23:37.294Z,6.29
2022-09-28T22:26:19.130Z,6.30
2022-09-28T22:28:50.672Z,6.31
2022-09-28T22:31:19.387Z,6.26
2022-09-28T22:33:46.529Z,6.20
2022-09-28T22:36:16.700Z,6.19
2022-09-28T22:38:44.830Z,6.15
2022-09-28T22:41:12.205Z,6.16
2022-09-28T22:43:39.198Z,6.13
2022-09-28T22:46:06.319Z,6.07
2022-09-28T22:48:34.471Z,6.04
2022-09-28T22:51:02.356Z,6.01
2022-09-28T22:53:29.618Z,5.97
2022-09-28T22:55:57.986Z,5.95
2022-09-28T22:58:25.035Z,5.92
2022-09-28T23:00:52.426Z,5.90
2022-09-28T23:03:19.406Z,5.87
2022-09-28T23:05:54.387Z,5.84
2022-09-28T23:08:22.382Z,5.78
2022-09-28T23:10:49.844Z,5.72
2022-09-28T23:13:16.999Z,5.70
2022-09-28T23:15:43.921Z,5.68
2022-09-28T23:18:11.166Z,5.66
2022-09-28T23:20:38.329Z,5.65
2022-09-28T23:23:05.682Z,5.66
2022-09-28T23:25:32.740Z,5.68
2022-09-28T23:27:59.901Z,5.70
2022-09-28T23:30:27.061Z,5.74
2022-09-28T23:32:54.042Z,5.85
2022-09-28T23:35:21.143Z,5.88
2022-09-28T23:37:51.786Z,5.89
2022-09-28T23:40:19.105Z,5.90
2022-09-28T23:42:46.064Z,5.89
2022-09-28T23:45:13.233Z,5.95
2022-09-28T23:47:40.290Z,6.04
2022-09-28T23:50:08.123Z,6.13
2022-09-28T23:52:35.443Z,6.15
2022-09-28T23:55:02.542Z,6.12
2022-09-28T23:57:29.570Z,6.10
2022-09-28T23:59:56.534Z,6.07
